sensor_id;sensor_type;location;lat;lon;timestamp;temperature;humidity
40556;DHT22;26250;45.422;11.100;2023-01-29T20:03:29;8.00;78.00
40556;DHT22;26250;45.422;11.100;2023-01-29T20:06:01;7.90;78.10
40556;DHT22;26250;45.422;11.100;2023-01-29T20:08:29;7.70;79.10
40556;DHT22;26250;45.422;11.100;2023-01-29T20:10:56;7.60;79.30
40556;DHT22;26250;45.422;11.100;2023-01-29T20:13:23;7.30;80.50
40556;DHT22;26250;45.422;11.100;2023-01-29T20:15:51;7.30;80.60
40556;DHT22;26250;45.422;11.100;2023-01-29T20:18:18;7.20;81.10
40556;DHT22;26250;45.422;11.100;2023-01-29T20:20:48;7.50;80.30
40556;DHT22;26250;45.422;11.100;2023-01-29T20:23:17;7.80;79.00
40556;DHT22;26250;45.422;11.100;2023-01-29T20:26:02;7.90;78.80
40556;DHT22;26250;45.422;11.100;2023-01-29T20:28:29;7.80;78.90
40556;DHT22;26250;45.422;11.100;2023-01-29T20:30:56;7.70;79.30
40556;DHT22;26250;45.422;11.100;2023-01-29T20:33:25;7.50;80.10
40556;DHT22;26250;45.422;11.100;2023-01-29T20:36:00;7.50;80.00
40556;DHT22;26250;45.422;11.100;2023-01-29T20:38:27;7.80;79.00
40556;DHT22;26250;45.422;11.100;2023-01-29T20:41:07;7.70;78.60
40556;DHT22;26250;45.422;11.100;2023-01-29T20:43:34;7.50;79.20
40556;DHT22;26250;45.422;11.100;2023-01-29T20:46:01;7.40;80.00
40556;DHT22;26250;45.422;11.100;2023-01-29T20:48:31;7.50;79.50
40556;DHT22;26250;45.422;11.100;2023-01-29T20:51:06;7.30;80.00
40556;DHT22;26250;45.422;11.100;2023-01-29T20:53:34;7.20;80.40
40556;DHT22;26250;45.422;11.100;2023-01-29T20:56:20;7.50;86.70
40556;DHT22;26250;45.422;11.100;2023-01-29T20:59:06;7.80;83.70
40556;DHT22;26250;45.422;11.100;2023-01-29T21:01:33;7.50;81.50
40556;DHT22;26250;45.422;11.100;2023-01-29T21:04:00;7.60;79.60
40556;DHT22;26250;45.422;11.100;2023-01-29T21:06:27;7.40;79.90
40556;DHT22;26250;45.422;11.100;2023-01-29T21:08:55;7.30;80.00
40556;DHT22;26250;45.422;11.100;2023-01-29T21:11:23;7.30;79.70
40556;DHT22;26250;45.422;11.100;2023-01-29T21:13:50;7.30;79.50
40556;DHT22;26250;45.422;11.100;2023-01-29T21:16:19;7.10;79.80
40556;DHT22;26250;45.422;11.100;2023-01-29T21:18:46;7.00;80.50
40556;DHT22;26250;45.422;11.100;2023-01-29T21:21:13;6.90;81.30
40556;DHT22;26250;45.422;11.100;2023-01-29T21:23:40;7.00;80.50
40556;DHT22;26250;45.422;11.100;2023-01-29T21:26:07;7.10;79.90
40556;DHT22;26250;45.422;11.100;2023-01-29T21:28:34;7.40;78.70
40556;DHT22;26250;45.422;11.100;2023-01-29T21:31:09;7.50;78.10
40556;DHT22;26250;45.422;11.100;2023-01-29T21:33:36;7.50;77.90
40556;DHT22;26250;45.422;11.100;2023-01-29T21:36:04;7.40;78.10
40556;DHT22;26250;45.422;11.100;2023-01-29T21:38:31;7.20;79.00
40556;DHT22;26250;45.422;11.100;2023-01-29T21:40:59;7.30;78.20
